Atlantic, Virginia
Current Conditions -  °F | °C
As of 5:54 AM on Sunday 23 Nov 2014 (Local Time) from KWAL Reporting Station
Clear Clear  
Wind Chill: 40°   Ceiling: Unl
Heat Index: 44°   Visibility: 10mi
Dew Point: 28°   Wind: 8mph
Humidity: 53%   Direction: 250°WSW
Pressure: 30.28"   Gusts: NA
Location:  37.9°N, 75.51°W
Report Text: KWAL 231054Z AUTO 25007KT 10SM CLR 07/M02 A3028 RMK AO2 SLP249 T00671022
Loading
Personal Weather Stations






























Interactive Weather Map New forecast layout! Learn more

10-Day Weather Forecast

Advertisements
Track Severe Weather on mobile